sensor_id;sensor_type;location;lat;lon;timestamp;noise_LAeq;noise_LA_min;noise_LA_max;noise_LA01;noise_LA95
68945;Laerm;55984;48.790;8.990;2023-01-15T00:02:08;47.48;46.22;50.13;;
68945;Laerm;55984;48.790;8.990;2023-01-15T00:04:35;47.48;46.34;49.62;;
68945;Laerm;55984;48.790;8.990;2023-01-15T00:07:00;47.49;46.40;49.80;;
68945;Laerm;55984;48.790;8.990;2023-01-15T00:09:25;47.48;46.26;49.99;;
68945;Laerm;55984;48.790;8.990;2023-01-15T00:11:51;47.48;46.26;49.94;;
68945;Laerm;55984;48.790;8.990;2023-01-15T00:14:16;47.50;46.37;49.75;;
68945;Laerm;55984;48.790;8.990;2023-01-15T00:16:41;47.49;46.30;50.12;;
68945;Laerm;55984;48.790;8.990;2023-01-15T00:19:09;47.50;46.15;49.45;;
68945;Laerm;55984;48.790;8.990;2023-01-15T00:21:35;47.49;46.25;49.91;;
68945;Laerm;55984;48.790;8.990;2023-01-15T00:24:00;47.51;46.22;49.65;;
68945;Laerm;55984;48.790;8.990;2023-01-15T00:26:44;47.54;46.25;49.98;;
68945;Laerm;55984;48.790;8.990;2023-01-15T00:29:28;47.53;46.27;50.40;;
68945;Laerm;55984;48.790;8.990;2023-01-15T00:31:59;47.52;46.28;49.66;;
68945;Laerm;55984;48.790;8.990;2023-01-15T00:34:26;47.52;46.29;49.68;;
68945;Laerm;55984;48.790;8.990;2023-01-15T00:36:51;47.52;46.36;50.04;;
68945;Laerm;55984;48.790;8.990;2023-01-15T00:39:17;47.54;46.41;50.09;;
68945;Laerm;55984;48.790;8.990;2023-01-15T00:41:43;47.53;46.36;49.29;;
68945;Laerm;55984;48.790;8.990;2023-01-15T00:44:08;47.53;46.25;49.84;;
68945;Laerm;55984;48.790;8.990;2023-01-15T00:46:33;47.52;46.15;50.01;;
68945;Laerm;55984;48.790;8.990;2023-01-15T00:48:59;47.53;46.35;50.24;;
68945;Laerm;55984;48.790;8.990;2023-01-15T00:51:24;47.53;46.15;49.67;;
68945;Laerm;55984;48.790;8.990;2023-01-15T00:53:49;47.53;46.34;50.02;;
68945;Laerm;55984;48.790;8.990;2023-01-15T00:56:15;47.53;46.39;49.69;;
68945;Laerm;55984;48.790;8.990;2023-01-15T00:58:40;47.53;46.30;50.05;;
68945;Laerm;55984;48.790;8.990;2023-01-15T01:01:06;47.54;46.30;49.99;;
68945;Laerm;55984;48.790;8.990;2023-01-15T01:03:32;47.53;46.37;49.68;;
68945;Laerm;55984;48.790;8.990;2023-01-15T01:06:01;47.53;46.31;49.40;;
68945;Laerm;55984;48.790;8.990;2023-01-15T01:08:28;47.53;46.33;50.15;;
68945;Laerm;55984;48.790;8.990;2023-01-15T01:11:06;47.52;46.31;49.87;;
68945;Laerm;55984;48.790;8.990;2023-01-15T01:13:33;47.53;46.23;49.97;;
68945;Laerm;55984;48.790;8.990;2023-01-15T01:15:59;47.53;46.26;50.26;;
68945;Laerm;55984;48.790;8.990;2023-01-15T01:18:24;47.53;46.23;49.48;;
68945;Laerm;55984;48.790;8.990;2023-01-15T01:20:50;47.52;46.22;49.94;;
68945;Laerm;55984;48.790;8.990;2023-01-15T01:23:15;47.53;46.48;49.40;;
68945;Laerm;55984;48.790;8.990;2023-01-15T01:25:40;47.54;46.22;49.65;;
68945;Laerm;55984;48.790;8.990;2023-01-15T01:28:05;47.54;46.50;50.02;;
68945;Laerm;55984;48.790;8.990;2023-01-15T01:30:31;47.55;46.32;49.90;;
68945;Laerm;55984;48.790;8.990;2023-01-15T01:32:56;47.54;46.01;49.74;;
68945;Laerm;55984;48.790;8.990;2023-01-15T01:35:21;47.56;46.40;49.85;;
68945;Laerm;55984;48.790;8.990;2023-01-15T01:37:50;47.57;46.33;49.78;;
68945;Laerm;55984;48.790;8.990;2023-01-15T01:40:16;47.58;46.46;50.23;;
68945;Laerm;55984;48.790;8.990;2023-01-15T01:42:42;47.60;46.47;49.85;;
68945;Laerm;55984;48.790;8.990;2023-01-15T01:45:26;47.58;46.32;50.55;;
68945;Laerm;55984;48.790;8.990;2023-01-15T01:47:58;47.58;46.37;50.20;;
68945;Laerm;55984;48.790;8.990;2023-01-15T01:50:25;47.58;46.03;49.63;;
68945;Laerm;55984;48.790;8.990;2023-01-15T01:52:55;47.59;46.36;50.02;;
68945;Laerm;55984;48.790;8.990;2023-01-15T01:55:24;47.59;46.18;50.06;;
68945;Laerm;55984;48.790;8.990;2023-01-15T01:57:51;47.58;46.13;50.04;;
68945;Laerm;55984;48.790;8.990;2023-01-15T02:00:19;47.59;46.29;49.88;;
68945;Laerm;55984;48.790;8.990;2023-01-15T02:02:47;47.60;46.29;50.16;;
68945;Laerm;55984;48.790;8.990;2023-01-15T02:05:38;47.60;46.43;49.85;;
68945;Laerm;55984;48.790;8.990;2023-01-15T02:08:03;47.59;46.40;49.45;;
68945;Laerm;55984;48.790;8.990;2023-01-15T02:10:30;47.60;46.44;50.47;;
68945;Laerm;55984;48.790;8.990;2023-01-15T02:16:04;47.61;46.40;50.01;;
68945;Laerm;55984;48.790;8.990;2023-01-15T02:21:07;47.60;46.38;50.11;;
68945;Laerm;55984;48.790;8.990;2023-01-15T02:28:53;47.60;46.39;50.12;;
68945;Laerm;55984;48.790;8.990;2023-01-15T02:31:25;47.60;46.25;49.94;;
68945;Laerm;55984;48.790;8.990;2023-01-15T02:36:22;47.61;46.29;49.96;;
68945;Laerm;55984;48.790;8.990;2023-01-15T02:38:51;47.60;46.29;50.30;;
68945;Laerm;55984;48.790;8.990;2023-01-15T02:41:22;47.60;46.40;50.23;;
68945;Laerm;55984;48.790;8.990;2023-01-15T02:43:53;47.59;46.07;50.15;;
68945;Laerm;55984;48.790;8.990;2023-01-15T02:46:34;47.60;46.12;49.88;;
68945;Laerm;55984;48.790;8.990;2023-01-15T02:49:02;47.58;46.32;49.73;;
68945;Laerm;55984;48.790;8.990;2023-01-15T02:51:37;47.58;46.33;50.09;;
68945;Laerm;55984;48.790;8.990;2023-01-15T02:54:08;47.57;46.23;50.09;;
68945;Laerm;55984;48.790;8.990;2023-01-15T02:56:37;47.57;46.24;50.53;;
68945;Laerm;55984;48.790;8.990;2023-01-15T02:59:07;47.55;46.42;49.80;;
68945;Laerm;55984;48.790;8.990;2023-01-15T03:01:58;47.55;46.49;50.34;;
68945;Laerm;55984;48.790;8.990;2023-01-15T03:04:31;47.55;46.30;49.70;;
68945;Laerm;55984;48.790;8.990;2023-01-15T03:07:05;47.54;46.25;49.91;;
68945;Laerm;55984;48.790;8.990;2023-01-15T03:09:34;47.55;46.30;50.27;;
68945;Laerm;55984;48.790;8.990;2023-01-15T03:14:46;47.53;46.38;50.14;;
68945;Laerm;55984;48.790;8.990;2023-01-15T03:17:21;47.53;46.27;50.03;;
68945;Laerm;55984;48.790;8.990;2023-01-15T03:19:52;47.52;46.33;50.10;;
68945;Laerm;55984;48.790;8.990;2023-01-15T03:24:52;47.52;46.28;49.89;;
68945;Laerm;55984;48.790;8.990;2023-01-15T03:27:19;47.52;46.13;49.94;;
68945;Laerm;55984;48.790;8.990;2023-01-15T03:29:47;47.52;46.31;49.90;;
68945;Laerm;55984;48.790;8.990;2023-01-15T03:32:15;47.52;46.35;49.55;;
68945;Laerm;55984;48.790;8.990;2023-01-15T03:34:50;47.53;46.22;49.96;;
68945;Laerm;55984;48.790;8.990;2023-01-15T03:37:17;47.52;46.26;50.05;;
68945;Laerm;55984;48.790;8.990;2023-01-15T03:39:43;47.53;46.13;50.01;;
68945;Laerm;55984;48.790;8.990;2023-01-15T03:42:17;47.53;46.46;49.96;;
68945;Laerm;55984;48.790;8.990;2023-01-15T03:44:59;47.55;46.26;49.69;;
68945;Laerm;55984;48.790;8.990;2023-01-15T03:47:58;47.54;46.25;50.18;;
68945;Laerm;55984;48.790;8.990;2023-01-15T03:53:39;47.54;46.05;50.26;;
68945;Laerm;55984;48.790;8.990;2023-01-15T03:56:21;47.54;46.48;49.96;;
68945;Laerm;55984;48.790;8.990;2023-01-15T03:59:10;47.56;46.25;49.98;;
68945;Laerm;55984;48.790;8.990;2023-01-15T04:01:38;47.57;46.33;50.19;;
68945;Laerm;55984;48.790;8.990;2023-01-15T04:04:06;47.57;46.42;49.98;;
68945;Laerm;55984;48.790;8.990;2023-01-15T04:06:34;47.58;46.33;50.24;;
68945;Laerm;55984;48.790;8.990;2023-01-15T04:09:02;47.58;46.38;49.77;;
68945;Laerm;55984;48.790;8.990;2023-01-15T04:11:28;47.60;46.17;49.65;;
68945;Laerm;55984;48.790;8.990;2023-01-15T04:13:53;47.59;46.52;50.10;;
68945;Laerm;55984;48.790;8.990;2023-01-15T04:16:27;47.58;46.32;50.01;;
68945;Laerm;55984;48.790;8.990;2023-01-15T04:18:53;47.59;46.45;50.16;;
68945;Laerm;55984;48.790;8.990;2023-01-15T04:21:19;47.58;46.04;50.72;;
68945;Laerm;55984;48.790;8.990;2023-01-15T04:23:45;47.57;46.48;50.21;;
68945;Laerm;55984;48.790;8.990;2023-01-15T04:26:10;47.58;46.29;50.13;;
68945;Laerm;55984;48.790;8.990;2023-01-15T04:28:36;47.57;46.38;50.06;;
68945;Laerm;55984;48.790;8.990;2023-01-15T04:31:01;47.56;46.33;49.88;;
68945;Laerm;55984;48.790;8.990;2023-01-15T04:33:27;47.56;46.43;50.10;;
68945;Laerm;55984;48.790;8.990;2023-01-15T04:35:52;47.56;46.32;49.94;;
68945;Laerm;55984;48.790;8.990;2023-01-15T04:38:17;47.56;46.38;50.01;;
68945;Laerm;55984;48.790;8.990;2023-01-15T04:40:43;47.56;46.27;50.18;;
68945;Laerm;55984;48.790;8.990;2023-01-15T04:43:27;47.57;46.28;49.95;;
68945;Laerm;55984;48.790;8.990;2023-01-15T04:46:11;47.56;46.43;49.83;;
68945;Laerm;55984;48.790;8.990;2023-01-15T04:48:38;47.56;46.50;50.21;;
68945;Laerm;55984;48.790;8.990;2023-01-15T04:51:04;47.57;46.32;49.43;;
68945;Laerm;55984;48.790;8.990;2023-01-15T04:53:30;47.54;46.23;50.39;;
68945;Laerm;55984;48.790;8.990;2023-01-15T04:56:00;47.53;46.35;50.08;;
68945;Laerm;55984;48.790;8.990;2023-01-15T04:58:26;47.52;46.21;50.11;;
68945;Laerm;55984;48.790;8.990;2023-01-15T05:00:51;47.52;46.37;49.72;;
68945;Laerm;55984;48.790;8.990;2023-01-15T05:03:17;47.51;46.24;50.14;;
68945;Laerm;55984;48.790;8.990;2023-01-15T05:05:42;47.52;46.21;50.30;;
68945;Laerm;55984;48.790;8.990;2023-01-15T05:08:07;47.53;46.27;49.95;;
68945;Laerm;55984;48.790;8.990;2023-01-15T05:10:33;47.54;46.41;49.81;;
68945;Laerm;55984;48.790;8.990;2023-01-15T05:12:58;47.52;46.21;49.60;;
68945;Laerm;55984;48.790;8.990;2023-01-15T05:15:23;47.52;46.40;50.26;;
68945;Laerm;55984;48.790;8.990;2023-01-15T05:17:49;47.52;46.48;49.49;;
68945;Laerm;55984;48.790;8.990;2023-01-15T05:20:14;47.49;46.37;49.69;;
68945;Laerm;55984;48.790;8.990;2023-01-15T05:22:39;47.47;46.31;50.36;;
68945;Laerm;55984;48.790;8.990;2023-01-15T05:25:05;47.44;46.20;49.95;;
68945;Laerm;55984;48.790;8.990;2023-01-15T05:27:30;47.42;46.23;49.89;;
68945;Laerm;55984;48.790;8.990;2023-01-15T05:29:56;47.40;46.19;49.66;;
68945;Laerm;55984;48.790;8.990;2023-01-15T05:32:21;47.38;46.35;50.21;;
68945;Laerm;55984;48.790;8.990;2023-01-15T05:34:46;47.39;46.38;49.71;;
68945;Laerm;55984;48.790;8.990;2023-01-15T05:37:12;47.36;46.25;49.89;;
68945;Laerm;55984;48.790;8.990;2023-01-15T05:39:37;47.36;46.34;49.97;;
68945;Laerm;55984;48.790;8.990;2023-01-15T05:42:02;47.35;46.19;49.16;;
68945;Laerm;55984;48.790;8.990;2023-01-15T05:44:31;47.34;46.22;49.64;;
68945;Laerm;55984;48.790;8.990;2023-01-15T05:46:59;47.35;46.23;49.94;;
68945;Laerm;55984;48.790;8.990;2023-01-15T05:49:27;47.34;46.36;49.62;;
68945;Laerm;55984;48.790;8.990;2023-01-15T05:51:57;47.34;45.70;49.53;;
68945;Laerm;55984;48.790;8.990;2023-01-15T05:54:30;47.33;46.26;49.80;;
68945;Laerm;55984;48.790;8.990;2023-01-15T05:56:56;47.33;45.91;49.40;;
68945;Laerm;55984;48.790;8.990;2023-01-15T05:59:24;47.33;45.90;49.58;;
68945;Laerm;55984;48.790;8.990;2023-01-15T06:01:50;47.32;46.06;49.77;;
68945;Laerm;55984;48.790;8.990;2023-01-15T06:04:16;47.33;46.28;49.98;;
68945;Laerm;55984;48.790;8.990;2023-01-15T06:06:46;47.32;46.11;49.35;;
68945;Laerm;55984;48.790;8.990;2023-01-15T06:09:12;47.32;46.12;49.46;;
68945;Laerm;55984;48.790;8.990;2023-01-15T06:11:39;47.33;46.28;49.65;;
68945;Laerm;55984;48.790;8.990;2023-01-15T06:14:04;47.32;46.05;49.76;;
68945;Laerm;55984;48.790;8.990;2023-01-15T06:16:30;47.31;46.24;49.73;;
68945;Laerm;55984;48.790;8.990;2023-01-15T06:18:59;47.31;46.09;49.90;;
68945;Laerm;55984;48.790;8.990;2023-01-15T06:21:25;47.33;46.22;49.50;;
68945;Laerm;55984;48.790;8.990;2023-01-15T06:23:52;47.33;46.18;49.26;;
68945;Laerm;55984;48.790;8.990;2023-01-15T06:26:17;47.32;46.18;50.10;;
68945;Laerm;55984;48.790;8.990;2023-01-15T06:28:43;47.32;46.12;49.94;;
68945;Laerm;55984;48.790;8.990;2023-01-15T06:31:14;47.32;46.16;49.94;;
68945;Laerm;55984;48.790;8.990;2023-01-15T06:33:39;47.32;46.10;49.22;;
68945;Laerm;55984;48.790;8.990;2023-01-15T06:36:06;47.32;46.06;49.81;;
68945;Laerm;55984;48.790;8.990;2023-01-15T06:38:32;47.32;46.23;49.51;;
68945;Laerm;55984;48.790;8.990;2023-01-15T06:40:59;47.32;46.28;49.96;;
68945;Laerm;55984;48.790;8.990;2023-01-15T06:43:24;47.31;46.24;49.62;;
68945;Laerm;55984;48.790;8.990;2023-01-15T06:46:09;47.31;46.25;49.82;;
68945;Laerm;55984;48.790;8.990;2023-01-15T06:48:53;47.31;46.28;49.79;;
68945;Laerm;55984;48.790;8.990;2023-01-15T06:51:18;47.31;46.26;49.59;;
68945;Laerm;55984;48.790;8.990;2023-01-15T06:53:46;47.31;46.16;49.66;;
68945;Laerm;55984;48.790;8.990;2023-01-15T06:56:12;47.31;46.24;49.68;;
68945;Laerm;55984;48.790;8.990;2023-01-15T06:58:40;47.31;46.27;49.78;;
68945;Laerm;55984;48.790;8.990;2023-01-15T07:01:10;47.31;46.29;49.65;;
68945;Laerm;55984;48.790;8.990;2023-01-15T07:03:37;47.31;46.07;49.83;;
68945;Laerm;55984;48.790;8.990;2023-01-15T07:06:10;47.31;46.07;49.60;;
68945;Laerm;55984;48.790;8.990;2023-01-15T07:08:36;47.32;45.91;49.94;;
68945;Laerm;55984;48.790;8.990;2023-01-15T07:11:06;47.32;46.13;49.92;;
68945;Laerm;55984;48.790;8.990;2023-01-15T07:13:32;47.31;46.17;49.28;;
68945;Laerm;55984;48.790;8.990;2023-01-15T07:15:59;47.31;46.22;49.65;;
68945;Laerm;55984;48.790;8.990;2023-01-15T07:18:26;47.30;46.23;49.87;;
68945;Laerm;55984;48.790;8.990;2023-01-15T07:20:56;47.31;46.27;49.64;;
68945;Laerm;55984;48.790;8.990;2023-01-15T07:23:23;47.30;46.07;49.73;;
68945;Laerm;55984;48.790;8.990;2023-01-15T07:25:51;47.30;46.07;50.19;;
68945;Laerm;55984;48.790;8.990;2023-01-15T07:28:17;47.31;46.12;50.07;;
68945;Laerm;55984;48.790;8.990;2023-01-15T07:30:42;47.30;46.19;49.02;;
68945;Laerm;55984;48.790;8.990;2023-01-15T07:33:08;47.30;46.18;49.78;;
68945;Laerm;55984;48.790;8.990;2023-01-15T07:35:34;47.30;46.12;49.47;;
68945;Laerm;55984;48.790;8.990;2023-01-15T07:38:00;47.31;46.16;49.44;;
68945;Laerm;55984;48.790;8.990;2023-01-15T07:40:26;47.30;46.15;49.49;;
68945;Laerm;55984;48.790;8.990;2023-01-15T07:42:51;47.31;46.07;49.37;;
68945;Laerm;55984;48.790;8.990;2023-01-15T07:45:38;47.31;46.11;49.64;;
68945;Laerm;55984;48.790;8.990;2023-01-15T07:48:29;47.30;46.25;49.73;;
68945;Laerm;55984;48.790;8.990;2023-01-15T07:51:13;47.30;45.97;49.50;;
68945;Laerm;55984;48.790;8.990;2023-01-15T07:53:39;47.30;46.15;50.15;;
68945;Laerm;55984;48.790;8.990;2023-01-15T07:56:04;47.30;46.31;49.71;;
68945;Laerm;55984;48.790;8.990;2023-01-15T07:58:30;47.30;46.30;49.90;;
68945;Laerm;55984;48.790;8.990;2023-01-15T08:00:55;47.30;46.29;49.94;;
68945;Laerm;55984;48.790;8.990;2023-01-15T08:03:20;47.30;46.23;49.79;;
68945;Laerm;55984;48.790;8.990;2023-01-15T08:05:45;47.30;46.15;49.55;;
68945;Laerm;55984;48.790;8.990;2023-01-15T08:08:17;47.29;46.06;49.53;;
68945;Laerm;55984;48.790;8.990;2023-01-15T08:10:43;47.29;46.15;49.53;;
68945;Laerm;55984;48.790;8.990;2023-01-15T08:13:37;47.29;46.20;49.82;;
68945;Laerm;55984;48.790;8.990;2023-01-15T08:16:21;47.29;46.17;50.00;;
68945;Laerm;55984;48.790;8.990;2023-01-15T08:18:46;47.29;46.09;49.66;;
68945;Laerm;55984;48.790;8.990;2023-01-15T08:21:13;47.29;46.24;49.36;;
68945;Laerm;55984;48.790;8.990;2023-01-15T08:23:43;47.29;46.11;49.83;;
68945;Laerm;55984;48.790;8.990;2023-01-15T08:26:10;47.28;45.95;49.43;;
68945;Laerm;55984;48.790;8.990;2023-01-15T08:28:36;47.29;46.15;49.75;;
68945;Laerm;55984;48.790;8.990;2023-01-15T08:31:01;47.28;46.08;49.95;;
68945;Laerm;55984;48.790;8.990;2023-01-15T08:33:26;47.29;46.12;49.29;;
68945;Laerm;55984;48.790;8.990;2023-01-15T08:35:52;47.27;46.18;49.79;;
68945;Laerm;55984;48.790;8.990;2023-01-15T08:38:17;47.29;46.24;49.24;;
68945;Laerm;55984;48.790;8.990;2023-01-15T08:40:42;47.29;46.23;49.49;;
68945;Laerm;55984;48.790;8.990;2023-01-15T08:43:27;47.30;45.97;49.55;;
68945;Laerm;55984;48.790;8.990;2023-01-15T08:45:58;47.30;46.20;50.25;;
68945;Laerm;55984;48.790;8.990;2023-01-15T08:48:24;47.29;46.14;49.79;;
68945;Laerm;55984;48.790;8.990;2023-01-15T08:50:50;47.29;45.90;50.31;;
68945;Laerm;55984;48.790;8.990;2023-01-15T08:53:16;47.31;46.18;49.57;;
68945;Laerm;55984;48.790;8.990;2023-01-15T08:55:43;47.29;45.95;49.33;;
68945;Laerm;55984;48.790;8.990;2023-01-15T08:58:08;47.30;46.33;49.36;;
68945;Laerm;55984;48.790;8.990;2023-01-15T09:00:33;47.30;46.13;49.49;;
68945;Laerm;55984;48.790;8.990;2023-01-15T09:02:59;47.30;46.17;49.78;;
68945;Laerm;55984;48.790;8.990;2023-01-15T09:05:24;47.30;46.01;49.56;;
68945;Laerm;55984;48.790;8.990;2023-01-15T09:07:52;47.30;46.25;49.86;;
68945;Laerm;55984;48.790;8.990;2023-01-15T09:10:17;47.29;46.26;49.97;;
68945;Laerm;55984;48.790;8.990;2023-01-15T09:12:43;47.30;46.04;49.63;;
68945;Laerm;55984;48.790;8.990;2023-01-15T09:15:08;47.29;46.13;49.70;;
68945;Laerm;55984;48.790;8.990;2023-01-15T09:17:36;47.30;45.92;49.91;;
68945;Laerm;55984;48.790;8.990;2023-01-15T09:20:06;47.30;46.15;49.46;;
68945;Laerm;55984;48.790;8.990;2023-01-15T09:22:32;47.31;46.14;49.36;;
68945;Laerm;55984;48.790;8.990;2023-01-15T09:24:58;47.30;46.26;49.56;;
68945;Laerm;55984;48.790;8.990;2023-01-15T09:27:24;47.30;46.04;49.34;;
68945;Laerm;55984;48.790;8.990;2023-01-15T09:29:49;47.30;46.05;49.13;;
68945;Laerm;55984;48.790;8.990;2023-01-15T09:32:15;47.29;46.27;49.59;;
68945;Laerm;55984;48.790;8.990;2023-01-15T09:34:40;47.30;46.09;49.63;;
68945;Laerm;55984;48.790;8.990;2023-01-15T09:37:06;47.31;46.25;50.02;;
68945;Laerm;55984;48.790;8.990;2023-01-15T09:39:31;47.30;46.10;49.98;;
68945;Laerm;55984;48.790;8.990;2023-01-15T09:42:22;47.30;46.20;49.83;;
68945;Laerm;55984;48.790;8.990;2023-01-15T09:53:26;47.31;46.10;49.90;;
68945;Laerm;55984;48.790;8.990;2023-01-15T09:55:57;47.31;46.15;49.61;;
68945;Laerm;55984;48.790;8.990;2023-01-15T09:58:33;47.32;46.12;50.10;;
68945;Laerm;55984;48.790;8.990;2023-01-15T10:01:00;47.31;46.01;49.98;;
68945;Laerm;55984;48.790;8.990;2023-01-15T10:06:50;47.31;46.26;49.34;;
68945;Laerm;55984;48.790;8.990;2023-01-15T10:09:25;47.31;46.07;49.73;;
68945;Laerm;55984;48.790;8.990;2023-01-15T10:12:03;47.32;46.12;49.55;;
68945;Laerm;55984;48.790;8.990;2023-01-15T10:17:39;47.31;46.26;49.27;;
68945;Laerm;55984;48.790;8.990;2023-01-15T10:23:03;47.32;46.09;49.62;;
68945;Laerm;55984;48.790;8.990;2023-01-15T10:25:41;47.31;45.99;49.35;;
68945;Laerm;55984;48.790;8.990;2023-01-15T10:28:27;47.31;46.24;49.43;;
68945;Laerm;55984;48.790;8.990;2023-01-15T10:30:54;47.31;45.99;49.62;;
68945;Laerm;55984;48.790;8.990;2023-01-15T10:36:34;47.31;46.08;49.90;;
68945;Laerm;55984;48.790;8.990;2023-01-15T10:42:10;47.30;46.17;50.02;;
68945;Laerm;55984;48.790;8.990;2023-01-15T10:47:18;47.31;46.31;49.75;;
68945;Laerm;55984;48.790;8.990;2023-01-15T10:49:47;47.30;46.10;49.75;;
68945;Laerm;55984;48.790;8.990;2023-01-15T10:52:37;47.32;46.36;49.14;;
68945;Laerm;55984;48.790;8.990;2023-01-15T10:58:36;47.32;46.03;49.69;;
68945;Laerm;55984;48.790;8.990;2023-01-15T11:01:09;47.31;46.03;49.62;;
68945;Laerm;55984;48.790;8.990;2023-01-15T11:03:39;47.31;46.08;49.89;;
68945;Laerm;55984;48.790;8.990;2023-01-15T11:06:12;47.31;46.21;49.79;;
68945;Laerm;55984;48.790;8.990;2023-01-15T11:08:39;47.29;46.19;49.03;;
68945;Laerm;55984;48.790;8.990;2023-01-15T11:11:25;47.30;46.22;49.30;;
68945;Laerm;55984;48.790;8.990;2023-01-15T11:14:41;47.31;46.18;49.71;;
68945;Laerm;55984;48.790;8.990;2023-01-15T11:17:37;47.30;45.86;49.65;;
68945;Laerm;55984;48.790;8.990;2023-01-15T11:20:31;47.31;46.19;49.93;;
68945;Laerm;55984;48.790;8.990;2023-01-15T11:23:08;47.30;46.22;49.42;;
68945;Laerm;55984;48.790;8.990;2023-01-15T11:25:35;47.30;46.01;49.90;;
68945;Laerm;55984;48.790;8.990;2023-01-15T11:28:04;47.30;45.98;49.75;;
68945;Laerm;55984;48.790;8.990;2023-01-15T11:30:36;47.30;46.03;49.84;;
68945;Laerm;55984;48.790;8.990;2023-01-15T11:33:15;47.30;46.05;49.67;;
68945;Laerm;55984;48.790;8.990;2023-01-15T11:35:52;47.30;45.91;49.55;;
68945;Laerm;55984;48.790;8.990;2023-01-15T11:38:22;47.30;46.22;49.95;;
68945;Laerm;55984;48.790;8.990;2023-01-15T11:40:52;47.30;46.06;49.95;;
68945;Laerm;55984;48.790;8.990;2023-01-15T11:43:23;47.30;45.98;49.33;;
68945;Laerm;55984;48.790;8.990;2023-01-15T11:46:28;47.31;46.11;49.98;;
68945;Laerm;55984;48.790;8.990;2023-01-15T11:49:17;47.30;46.14;49.61;;
68945;Laerm;55984;48.790;8.990;2023-01-15T11:52:05;47.30;46.22;49.84;;
68945;Laerm;55984;48.790;8.990;2023-01-15T11:54:36;47.30;46.17;49.64;;
68945;Laerm;55984;48.790;8.990;2023-01-15T11:57:03;47.29;45.95;49.52;;
68945;Laerm;55984;48.790;8.990;2023-01-15T11:59:30;47.30;46.11;49.41;;
68945;Laerm;55984;48.790;8.990;2023-01-15T12:02:24;47.31;46.21;49.31;;
68945;Laerm;55984;48.790;8.990;2023-01-15T12:04:51;47.30;46.13;48.88;;
68945;Laerm;55984;48.790;8.990;2023-01-15T12:07:19;47.29;46.30;49.30;;
68945;Laerm;55984;48.790;8.990;2023-01-15T12:17:47;47.30;46.11;49.42;;
68945;Laerm;55984;48.790;8.990;2023-01-15T12:20:32;47.30;46.16;49.53;;
68945;Laerm;55984;48.790;8.990;2023-01-15T12:26:14;47.29;46.18;49.59;;
68945;Laerm;55984;48.790;8.990;2023-01-15T12:29:04;47.30;45.99;49.91;;
68945;Laerm;55984;48.790;8.990;2023-01-15T12:31:36;47.30;46.17;49.45;;
68945;Laerm;55984;48.790;8.990;2023-01-15T12:34:11;47.29;46.00;49.16;;
68945;Laerm;55984;48.790;8.990;2023-01-15T12:37:03;47.30;46.11;49.64;;
68945;Laerm;55984;48.790;8.990;2023-01-15T12:39:31;47.29;46.14;49.97;;
68945;Laerm;55984;48.790;8.990;2023-01-15T12:42:07;47.29;46.30;49.60;;
68945;Laerm;55984;48.790;8.990;2023-01-15T12:44:58;47.29;46.22;49.83;;
68945;Laerm;55984;48.790;8.990;2023-01-15T12:47:32;47.30;45.91;49.82;;
68945;Laerm;55984;48.790;8.990;2023-01-15T12:50:27;47.30;46.08;49.48;;
68945;Laerm;55984;48.790;8.990;2023-01-15T12:53:05;47.30;46.16;49.98;;
68945;Laerm;55984;48.790;8.990;2023-01-15T12:55:37;47.30;46.26;49.77;;
68945;Laerm;55984;48.790;8.990;2023-01-15T12:58:11;47.30;46.15;49.67;;
68945;Laerm;55984;48.790;8.990;2023-01-15T13:00:41;47.29;46.09;50.13;;
68945;Laerm;55984;48.790;8.990;2023-01-15T13:03:23;47.29;46.03;49.46;;
68945;Laerm;55984;48.790;8.990;2023-01-15T13:05:54;47.30;46.20;49.55;;
68945;Laerm;55984;48.790;8.990;2023-01-15T13:08:30;47.30;46.13;49.64;;
68945;Laerm;55984;48.790;8.990;2023-01-15T13:10:57;47.30;46.19;49.37;;
68945;Laerm;55984;48.790;8.990;2023-01-15T13:13:25;47.30;46.18;49.48;;
68945;Laerm;55984;48.790;8.990;2023-01-15T13:21:14;47.31;46.23;49.77;;
68945;Laerm;55984;48.790;8.990;2023-01-15T13:23:47;47.30;46.08;50.20;;
68945;Laerm;55984;48.790;8.990;2023-01-15T13:32:04;47.30;46.08;49.61;;
68945;Laerm;55984;48.790;8.990;2023-01-15T13:43:49;47.51;46.15;49.54;;
68945;Laerm;55984;48.790;8.990;2023-01-15T13:46:19;47.55;46.15;50.26;;
68945;Laerm;55984;48.790;8.990;2023-01-15T13:48:48;47.62;46.33;50.14;;
68945;Laerm;55984;48.790;8.990;2023-01-15T13:53:53;47.58;46.28;49.75;;
68945;Laerm;55984;48.790;8.990;2023-01-15T13:56:30;47.62;46.36;49.61;;
68945;Laerm;55984;48.790;8.990;2023-01-15T13:59:00;47.62;46.34;49.43;;
68945;Laerm;55984;48.790;8.990;2023-01-15T14:03:56;47.50;46.25;49.72;;
68945;Laerm;55984;48.790;8.990;2023-01-15T14:09:09;47.52;46.45;50.21;;
68945;Laerm;55984;48.790;8.990;2023-01-15T14:11:48;47.53;46.33;49.82;;
68945;Laerm;55984;48.790;8.990;2023-01-15T14:29:00;47.77;46.58;49.38;;
68945;Laerm;55984;48.790;8.990;2023-01-15T14:31:37;47.62;46.42;50.26;;
68945;Laerm;55984;48.790;8.990;2023-01-15T14:34:10;47.61;46.35;49.99;;
68945;Laerm;55984;48.790;8.990;2023-01-15T14:36:49;47.66;46.03;49.92;;
68945;Laerm;55984;48.790;8.990;2023-01-15T14:39:40;47.67;46.45;50.52;;
68945;Laerm;55984;48.790;8.990;2023-01-15T14:45:16;47.69;46.24;49.76;;
68945;Laerm;55984;48.790;8.990;2023-01-15T14:47:44;47.72;46.23;49.93;;
68945;Laerm;55984;48.790;8.990;2023-01-15T14:50:29;47.62;46.35;49.67;;
68945;Laerm;55984;48.790;8.990;2023-01-15T14:53:06;47.61;46.40;49.89;;
68945;Laerm;55984;48.790;8.990;2023-01-15T15:01:34;47.56;46.39;49.46;;
68945;Laerm;55984;48.790;8.990;2023-01-15T15:09:25;47.52;46.35;49.61;;
68945;Laerm;55984;48.790;8.990;2023-01-15T15:11:53;47.51;46.38;50.24;;
68945;Laerm;55984;48.790;8.990;2023-01-15T15:14:38;47.48;46.22;50.46;;
68945;Laerm;55984;48.790;8.990;2023-01-15T15:17:10;47.46;46.39;49.82;;
68945;Laerm;55984;48.790;8.990;2023-01-15T15:19:44;47.42;46.20;49.65;;
68945;Laerm;55984;48.790;8.990;2023-01-15T15:22:15;47.38;46.32;49.79;;
68945;Laerm;55984;48.790;8.990;2023-01-15T15:24:55;47.38;46.21;49.80;;
68945;Laerm;55984;48.790;8.990;2023-01-15T15:27:41;47.37;46.34;49.68;;
68945;Laerm;55984;48.790;8.990;2023-01-15T15:30:09;47.36;46.25;49.22;;
68945;Laerm;55984;48.790;8.990;2023-01-15T15:32:36;47.36;46.23;49.60;;
68945;Laerm;55984;48.790;8.990;2023-01-15T15:35:05;47.35;46.26;49.94;;
68945;Laerm;55984;48.790;8.990;2023-01-15T15:37:43;47.35;46.18;49.76;;
68945;Laerm;55984;48.790;8.990;2023-01-15T15:40:15;47.34;46.25;49.72;;
68945;Laerm;55984;48.790;8.990;2023-01-15T15:42:54;47.35;46.24;49.13;;
68945;Laerm;55984;48.790;8.990;2023-01-15T15:45:54;47.35;46.24;49.26;;
68945;Laerm;55984;48.790;8.990;2023-01-15T15:48:39;47.33;45.82;49.68;;
68945;Laerm;55984;48.790;8.990;2023-01-15T15:51:31;47.34;46.13;49.91;;
68945;Laerm;55984;48.790;8.990;2023-01-15T15:54:04;47.33;46.08;49.61;;
68945;Laerm;55984;48.790;8.990;2023-01-15T15:56:31;47.34;46.24;49.98;;
68945;Laerm;55984;48.790;8.990;2023-01-15T15:58:57;47.34;46.24;49.53;;
68945;Laerm;55984;48.790;8.990;2023-01-15T16:01:24;47.33;46.22;49.22;;
68945;Laerm;55984;48.790;8.990;2023-01-15T16:03:56;47.34;46.19;49.57;;
68945;Laerm;55984;48.790;8.990;2023-01-15T16:06:23;47.34;46.15;49.45;;